Time;durP1;ratioP1;P1;durP2;ratioP2;P2;SDS_P1;SDS_P2;PMS_P1;PMS_P2;Temp;Humidity;BMP_temperature;BMP_pressure;BME280_temperature;BME280_humidity;BME280_pressure;Samples;Min_cycle;Max_cycle;Signal;HPM_P1;HPM_P2
2022/10/16 00:00:57;;;;;;;;;;;;;;;12.90;100.00;99639.81;5037790;28;20032;-86
2022/10/16 00:03:23;;;;;;;4.65;1.50;;;;;;;12.91;100.00;99641.38;5055570;28;19940;-86
2022/10/16 00:05:48;;;;;;;;;;;;;;;12.90;100.00;99656.97;5037719;28;20424;-86
2022/10/16 00:08:14;;;;;;;3.60;1.60;;;;;;;12.90;100.00;99658.94;5055040;28;19916;-86
2022/10/16 00:10:40;;;;;;;3.85;1.38;;;;;;;12.88;100.00;99663.97;5036983;28;20025;-86
2022/10/16 00:13:06;;;;;;;4.75;1.60;;;;;;;12.87;100.00;99660.44;5055135;28;20029;-86
2022/10/16 00:15:36;;;;;;;3.42;1.40;;;;;;;12.85;100.00;99659.22;5054977;28;20469;-86
2022/10/16 00:18:04;;;;;;;4.65;1.33;;;;;;;12.87;100.00;99659.66;5055943;28;20029;-87
2022/10/16 00:20:31;;;;;;;3.13;1.40;;;;;;;12.86;100.00;99656.13;5055563;28;20092;-86
2022/10/16 00:22:57;;;;;;;3.33;1.20;;;;;;;12.86;100.00;99652.63;5037738;28;20052;-84
2022/10/16 00:25:22;;;;;;;5.28;1.27;;;;;;;12.86;100.00;99658.88;5037091;28;20424;-87
2022/10/16 00:27:48;;;;;;;;;;;;;;;12.85;100.00;99665.47;5037418;28;20035;-87
2022/10/16 00:30:13;;;;;;;3.17;1.13;;;;;;;12.86;100.00;99666.28;5054771;28;19909;-86
2022/10/16 00:32:41;;;;;;;3.08;1.05;;;;;;;12.85;100.00;99662.75;5036357;28;20037;-85
2022/10/16 00:35:07;;;;;;;3.05;1.20;;;;;;;12.85;100.00;99654.56;5036261;28;20112;-86
2022/10/16 00:37:32;;;;;;;2.85;1.20;;;;;;;12.86;100.00;99672.53;5054033;28;20115;-86
2022/10/16 00:39:59;;;;;;;;;;;;;;;12.89;100.00;99660.06;5036891;28;20040;-88
2022/10/16 00:42:24;;;;;;;3.20;1.63;;;;;;;12.89;100.00;99660.88;5036774;28;19916;-86
2022/10/16 00:44:56;;;;;;;2.90;0.90;;;;;;;12.90;100.00;99659.72;5054477;28;20029;-86
2022/10/16 00:47:44;;;;;;;2.22;0.98;;;;;;;12.91;100.00;99658.56;5036553;28;20127;-87
2022/10/16 00:50:23;;;;;;;3.17;1.13;;;;;;;12.94;100.00;99665.28;5054780;28;20025;-85
2022/10/16 00:52:52;;;;;;;4.90;1.45;;;;;;;12.93;100.00;99666.41;5054407;28;20027;-87
2022/10/16 00:55:19;;;;;;;3.90;1.60;;;;;;;12.93;100.00;99671.88;5020487;28;20124;-86
2022/10/16 00:57:45;;;;;;;2.63;1.08;;;;;;;12.95;100.00;99675.84;5037681;28;20490;-88
2022/10/16 01:00:16;;;;;;;4.00;1.17;;;;;;;12.93;100.00;99669.94;5054906;28;20021;-88
2022/10/16 01:02:42;;;;;;;5.43;1.38;;;;;;;12.93;100.00;99660.94;5054271;28;20048;-86
2022/10/16 01:05:08;;;;;;;3.10;1.20;;;;;;;12.90;100.00;99656.97;5052851;28;20470;-86
2022/10/16 01:07:48;;;;;;;4.10;1.70;;;;;;;12.88;100.00;99658.50;5052811;28;20036;-86
2022/10/16 01:10:37;;;;;;;4.97;1.15;;;;;;;12.88;100.00;99655.78;5052894;28;20036;-87
2022/10/16 01:13:24;;;;;;;2.83;0.95;;;;;;;12.86;100.00;99667.06;5054147;28;20017;-87
2022/10/16 01:15:56;;;;;;;;;;;;;;;12.86;100.00;99669.00;5054452;28;20352;-87
2022/10/16 01:18:53;;;;;;;2.70;1.00;;;;;;;12.85;100.00;99670.94;5054091;28;19908;-86
2022/10/16 01:21:27;;;;;;;2.33;0.80;;;;;;;12.83;100.00;99669.72;5053589;28;20033;-87
2022/10/16 01:24:18;;;;;;;3.25;1.08;;;;;;;12.82;100.00;99674.41;5052347;28;20466;-87
2022/10/16 01:27:10;;;;;;;3.53;1.00;;;;;;;12.78;100.00;99670.03;5052580;28;20025;-86
2022/10/16 01:29:49;;;;;;;2.22;0.90;;;;;;;12.77;100.00;99679.38;5053631;28;20029;-86
2022/10/16 01:32:27;;;;;;;5.32;1.23;;;;;;;12.75;100.00;99665.25;5053771;28;20028;-86
2022/10/16 01:35:01;;;;;;;3.95;1.02;;;;;;;12.71;100.00;99662.47;5054086;28;20028;-87
2022/10/16 01:37:46;;;;;;;2.28;0.95;;;;;;;12.67;100.00;99669.00;5053524;28;20043;-85
2022/10/16 01:40:15;;;;;;;3.25;0.85;;;;;;;12.65;100.00;99670.16;5052286;28;20041;-86
2022/10/16 01:42:47;;;;;;;3.33;0.90;;;;;;;12.63;100.00;99667.00;5053523;28;20025;-86
2022/10/16 01:45:17;;;;;;;3.03;1.10;;;;;;;12.56;100.00;99669.56;5053582;28;20041;-86
2022/10/16 01:47:45;;;;;;;2.15;0.82;;;;;;;12.55;100.00;99668.00;5053788;28;20032;-86
2022/10/16 01:50:13;;;;;;;2.50;0.90;;;;;;;12.55;100.00;99664.47;5050870;28;20540;-86
2022/10/16 01:52:41;;;;;;;3.70;1.20;;;;;;;12.54;100.00;99671.88;5052078;28;20052;-86
2022/10/16 01:55:12;;;;;;;2.58;1.05;;;;;;;12.54;100.00;99665.63;5053287;28;20051;-86
2022/10/16 01:57:41;;;;;;;3.03;1.27;;;;;;;12.57;100.00;99671.16;5052491;28;20057;-84
2022/10/16 02:00:11;;;;;;;3.20;0.98;;;;;;;12.55;100.00;99664.47;5035069;28;20024;-85
2022/10/16 02:02:40;;;;;;;2.97;0.95;;;;;;;12.58;100.00;99671.94;5052696;28;20017;-86
2022/10/16 02:05:22;;;;;;;1.75;0.77;;;;;;;12.60;100.00;99675.13;5053341;28;20021;-87
2022/10/16 02:07:48;;;;;;;1.83;0.80;;;;;;;12.61;100.00;99668.50;5034886;28;20071;-85
2022/10/16 02:10:16;;;;;;;2.78;1.02;;;;;;;12.61;100.00;99679.44;5053323;28;20025;-86
2022/10/16 02:12:49;;;;;;;3.03;1.10;;;;;;;12.62;100.00;99684.53;5052902;28;20036;-85
2022/10/16 02:15:14;;;;;;;3.53;1.10;;;;;;;12.65;100.00;99683.03;5053212;28;20028;-85
2022/10/16 02:17:40;;;;;;;2.80;1.20;;;;;;;12.64;100.00;99681.44;5034922;28;20032;-84
2022/10/16 02:20:06;;;;;;;2.95;1.05;;;;;;;12.68;100.00;99676.84;5052484;28;20489;-86
2022/10/16 02:22:40;;;;;;;2.72;1.00;;;;;;;12.68;100.00;99681.53;5034383;28;20366;-86
2022/10/16 02:25:35;;;;;;;3.28;1.08;;;;;;;12.67;100.00;99674.47;5053703;28;20503;-85
2022/10/16 02:28:06;;;;;;;3.20;1.05;;;;;;;12.62;100.00;99673.63;5052538;28;20417;-86
2022/10/16 02:30:47;;;;;;;3.00;1.00;;;;;;;12.63;100.00;99683.41;5052468;28;20037;-87
2022/10/16 02:33:15;;;;;;;2.78;1.20;;;;;;;12.63;100.00;99682.59;5034609;28;20017;-86
2022/10/16 02:35:45;;;;;;;2.88;0.90;;;;;;;12.64;100.00;99686.91;5052875;28;20051;-86
2022/10/16 02:38:12;;;;;;;2.80;1.20;;;;;;;12.69;100.00;99683.88;5052411;28;20035;-86
2022/10/16 02:40:38;;;;;;;4.20;1.42;;;;;;;12.73;100.00;99686.69;5052606;28;20051;-86
2022/10/16 02:43:04;;;;;;;2.90;0.90;;;;;;;12.72;100.00;99674.97;5034307;28;20477;-86
2022/10/16 02:45:30;;;;;;;2.30;0.90;;;;;;;12.73;100.00;99679.28;5052124;28;20032;-86
2022/10/16 02:47:55;;;;;;;2.83;1.20;;;;;;;12.74;100.00;99675.41;5034581;28;20021;-85
2022/10/16 02:50:21;;;;;;;3.15;1.00;;;;;;;12.81;100.00;99674.75;5052441;28;20033;-85
2022/10/16 02:52:47;;;;;;;2.38;1.02;;;;;;;12.80;100.00;99681.38;5052164;28;20036;-86
2022/10/16 02:55:13;;;;;;;3.20;1.20;;;;;;;12.85;100.00;99681.09;5034104;28;20041;-85
2022/10/16 02:57:40;;;;;;;3.70;1.00;;;;;;;12.84;100.00;99674.84;5052029;28;20490;-85
2022/10/16 03:00:09;;;;;;;2.67;1.05;;;;;;;12.82;100.00;99670.88;5018206;28;20049;-86
2022/10/16 03:02:37;;;;;;;2.53;1.00;;;;;;;12.81;100.00;99672.81;5050706;28;20170;-87
2022/10/16 03:05:03;;;;;;;4.22;1.10;;;;;;;12.80;100.00;99684.91;5052127;28;20039;-85
2022/10/16 03:07:28;;;;;;;2.72;1.08;;;;;;;12.82;99.89;99673.63;5051949;28;20112;-85
2022/10/16 03:09:55;;;;;;;5.95;1.45;;;;;;;12.85;99.65;99679.16;5052052;28;20124;-87
2022/10/16 03:12:20;;;;;;;2.53;1.10;;;;;;;12.89;99.22;99690.13;5052443;28;20100;-86
2022/10/16 03:14:46;;;;;;;3.22;1.30;;;;;;;12.86;99.07;99680.72;5034181;28;20108;-87
2022/10/16 03:17:12;;;;;;;;;;;;;;;12.88;98.87;99697.53;5034223;28;20029;-87
2022/10/16 03:19:39;;;;;;;2.50;0.93;;;;;;;12.90;98.75;99684.31;5051947;28;20395;-87
2022/10/16 03:22:04;;;;;;;3.15;1.00;;;;;;;12.92;98.18;99687.47;5051994;28;20516;-85
2022/10/16 03:24:30;;;;;;;2.92;1.05;;;;;;;12.91;98.33;99679.63;5017706;28;20021;-85
2022/10/16 03:26:55;;;;;;;4.72;0.93;;;;;;;12.89;98.34;99690.13;5051967;28;20032;-85
2022/10/16 03:29:21;;;;;;;;;;;;;;;12.87;98.39;99678.78;5034245;28;20029;-85
2022/10/16 03:31:49;;;;;;;2.10;0.80;;;;;;;12.86;98.27;99683.44;5051706;28;19912;-85
2022/10/16 03:34:15;;;;;;;2.63;0.75;;;;;;;12.88;98.29;99675.69;5052331;28;20287;-86
2022/10/16 03:36:40;;;;;;;1.85;0.90;;;;;;;12.87;98.06;99679.56;5033775;28;20064;-86
2022/10/16 03:39:05;;;;;;;;;;;;;;;12.84;98.25;99680.28;5034214;28;20033;-86
2022/10/16 03:41:32;;;;;;;1.58;0.80;;;;;;;12.81;98.53;99686.47;5034066;28;19909;-86
2022/10/16 03:43:57;;;;;;;2.97;1.33;;;;;;;12.79;98.57;99696.19;5033791;28;20032;-86
2022/10/16 03:46:23;;;;;;;3.00;0.90;;;;;;;12.80;98.44;99695.03;5051645;28;20124;-87
2022/10/16 03:48:48;;;;;;;3.00;0.85;;;;;;;12.74;98.48;99699.97;5051566;28;20271;-86
2022/10/16 03:51:14;;;;;;;3.70;0.90;;;;;;;12.73;98.82;99701.13;5033471;28;20068;-83
2022/10/16 03:53:39;;;;;;;2.35;1.00;;;;;;;12.71;98.77;99700.69;5051641;28;20841;-84
2022/10/16 03:56:05;;;;;;;1.67;0.77;;;;;;;12.74;98.32;99696.47;5051515;28;20040;-83
2022/10/16 03:58:30;;;;;;;;;;;;;;;12.69;98.68;99689.34;5051248;28;20049;-84
2022/10/16 04:00:55;;;;;;;3.05;1.00;;;;;;;12.72;98.45;99688.63;5033518;28;19919;-83
2022/10/16 04:03:21;;;;;;;2.03;0.90;;;;;;;12.66;98.57;99692.81;5033369;28;20053;-84
2022/10/16 04:05:46;;;;;;;2.55;1.00;;;;;;;12.63;98.56;99702.50;5051594;28;20029;-84
2022/10/16 04:08:11;;;;;;;;;;;;;;;12.62;98.68;99705.59;5051865;28;20068;-84
2022/10/16 04:10:37;;;;;;;2.47;0.87;;;;;;;12.59;98.83;99704.34;5033439;28;19919;-84
2022/10/16 04:13:02;;;;;;;2.73;1.30;;;;;;;12.58;98.95;99700.03;5052399;28;20317;-84
2022/10/16 04:15:28;;;;;;;2.42;0.90;;;;;;;12.55;98.81;99717.16;5037375;28;20267;-83
2022/10/16 04:17:53;;;;;;;2.90;1.00;;;;;;;12.54;98.91;99720.25;5054730;28;20029;-82
2022/10/16 04:20:18;;;;;;;;;;;;;;;12.54;98.98;99722.97;5037323;28;20045;-84
2022/10/16 04:22:44;;;;;;;2.88;0.93;;;;;;;12.52;98.78;99717.06;5055006;28;19912;-85
2022/10/16 04:25:09;;;;;;;;;;;;;;;12.49;99.20;99718.59;5037622;28;20053;-85
2022/10/16 04:27:36;;;;;;;2.25;0.88;;;;;;;12.48;99.11;99717.00;5054825;28;19913;-85
2022/10/16 04:30:05;;;;;;;2.80;1.10;;;;;;;12.44;99.49;99721.59;5037028;28;20120;-83
2022/10/16 04:32:31;;;;;;;4.05;0.88;;;;;;;12.43;99.55;99730.94;5036718;28;20029;-84
2022/10/16 04:34:57;;;;;;;2.37;1.10;;;;;;;12.41;99.83;99733.22;5037148;28;20492;-84
2022/10/16 04:37:26;;;;;;;2.22;0.95;;;;;;;12.42;99.39;99739.47;5036268;28;20358;-83
2022/10/16 04:39:52;;;;;;;2.35;1.10;;;;;;;12.42;99.37;99744.94;5036774;28;20024;-85
2022/10/16 04:42:18;;;;;;;2.97;1.00;;;;;;;12.38;99.68;99747.59;5037493;28;20477;-83
2022/10/16 04:44:43;;;;;;;3.50;1.00;;;;;;;12.35;99.81;99748.28;5054885;28;20055;-83
2022/10/16 04:47:08;;;;;;;2.30;1.10;;;;;;;12.32;99.91;99746.28;5054996;28;20127;-82
2022/10/16 04:49:34;;;;;;;2.17;0.90;;;;;;;12.30;100.00;99749.38;5054683;28;20036;-83
2022/10/16 04:51:59;;;;;;;2.90;1.20;;;;;;;12.30;99.88;99743.13;5054374;28;20028;-82
2022/10/16 04:54:24;;;;;;;2.30;0.90;;;;;;;12.29;100.00;99749.72;5036563;28;20728;-82
2022/10/16 04:56:51;;;;;;;2.35;0.90;;;;;;;12.27;100.00;99757.47;5036375;28;20048;-83
2022/10/16 04:59:18;;;;;;;2.63;0.90;;;;;;;12.25;100.00;99757.03;5054442;28;20095;-84
2022/10/16 05:01:44;;;;;;;2.28;1.00;;;;;;;12.27;100.00;99758.28;5054962;28;20033;-83
2022/10/16 05:04:09;;;;;;;2.58;0.95;;;;;;;12.25;100.00;99757.03;5019665;28;20050;-83
2022/10/16 05:06:35;;;;;;;2.33;0.98;;;;;;;12.34;99.71;99776.75;5053899;28;20163;-83
2022/10/16 05:09:02;;;;;;;2.85;1.10;;;;;;;12.29;100.00;99775.09;5036198;28;20047;-83
2022/10/16 05:11:27;;;;;;;2.75;1.00;;;;;;;12.26;100.00;99780.44;5036430;28;20029;-84
2022/10/16 05:13:55;;;;;;;2.97;1.25;;;;;;;12.26;100.00;99778.53;5054406;28;20029;-85
2022/10/16 05:16:23;;;;;;;2.83;1.15;;;;;;;12.22;100.00;99788.53;5053934;28;20344;-86
2022/10/16 05:18:50;;;;;;;3.90;1.10;;;;;;;12.22;100.00;99791.28;5035957;28;20032;-83
2022/10/16 05:21:16;;;;;;;4.18;0.90;;;;;;;12.25;100.00;99787.84;5036314;28;20442;-80
2022/10/16 05:23:41;;;;;;;4.03;1.47;;;;;;;12.21;100.00;99789.69;5053627;28;20025;-84
2022/10/16 05:26:07;;;;;;;;;;;;;;;12.18;100.00;99784.16;5054120;28;20108;-85
2022/10/16 05:28:32;;;;;;;2.38;0.88;;;;;;;12.17;100.00;99794.28;5053745;28;20261;-85
2022/10/16 05:30:59;;;;;;;2.83;1.08;;;;;;;12.16;100.00;99794.63;5053814;28;20381;-83
2022/10/16 05:33:26;;;;;;;2.45;1.02;;;;;;;12.17;100.00;99797.00;5035791;28;20033;-84
2022/10/16 05:35:51;;;;;;;2.92;1.20;;;;;;;12.14;100.00;99795.00;5053346;28;20037;-82
2022/10/16 05:38:18;;;;;;;2.67;1.00;;;;;;;12.12;100.00;99789.09;5035439;28;20029;-83
2022/10/16 05:40:43;;;;;;;2.72;1.02;;;;;;;12.13;100.00;99798.88;5035550;28;20271;-82
2022/10/16 05:43:09;;;;;;;2.17;0.90;;;;;;;12.12;100.00;99793.78;5053442;28;20083;-82
2022/10/16 05:45:36;;;;;;;4.38;1.15;;;;;;;12.13;100.00;99795.34;5035443;28;20036;-82
2022/10/16 05:48:01;;;;;;;2.35;0.90;;;;;;;12.14;100.00;99789.53;5053630;28;20033;-82
2022/10/16 05:50:27;;;;;;;2.43;1.00;;;;;;;12.16;100.00;99798.16;5053451;28;20434;-81
2022/10/16 05:52:52;;;;;;;2.55;1.00;;;;;;;12.15;100.00;99798.50;5035046;28;20666;-82
2022/10/16 05:55:19;;;;;;;3.58;1.42;;;;;;;12.12;100.00;99800.03;5035378;28;20076;-82
2022/10/16 05:57:44;;;;;;;3.90;1.73;;;;;;;12.11;100.00;99812.09;5052696;28;20056;-82
2022/10/16 06:00:10;;;;;;;3.15;1.20;;;;;;;12.15;100.00;99820.34;5035344;28;20029;-82
2022/10/16 06:02:37;;;;;;;4.35;1.27;;;;;;;12.14;100.00;99833.22;5052957;28;20469;-83
2022/10/16 06:05:03;;;;;;;2.40;1.08;;;;;;;12.20;100.00;99833.72;5053129;28;20466;-81
2022/10/16 06:07:28;;;;;;;2.75;1.05;;;;;;;12.16;100.00;99839.09;5053173;28;20028;-83
2022/10/16 06:09:53;;;;;;;3.30;1.02;;;;;;;12.14;100.00;99838.66;5052830;28;20474;-83
2022/10/16 06:12:20;;;;;;;2.58;1.02;;;;;;;12.12;100.00;99832.75;5052819;28;20017;-83
2022/10/16 06:14:49;;;;;;;3.58;1.13;;;;;;;12.15;100.00;99844.91;5052992;28;20101;-82
2022/10/16 06:17:14;;;;;;;3.30;1.50;;;;;;;12.15;100.00;99850.38;5052889;28;20218;-82
2022/10/16 06:19:41;;;;;;;2.75;1.20;;;;;;;12.17;100.00;99842.63;5053097;28;20017;-83
2022/10/16 06:22:07;;;;;;;2.75;1.05;;;;;;;12.17;100.00;99846.16;5035068;28;20032;-83
2022/10/16 06:24:32;;;;;;;2.45;0.90;;;;;;;12.22;100.00;99851.34;5052948;28;20128;-84
2022/10/16 06:26:57;;;;;;;2.90;1.00;;;;;;;12.25;100.00;99858.03;5018332;28;20060;-84
2022/10/16 06:29:23;;;;;;;2.03;0.90;;;;;;;12.23;100.00;99863.03;5052488;28;20028;-81
2022/10/16 06:31:49;;;;;;;3.30;1.27;;;;;;;12.31;100.00;99857.41;5052881;28;20024;-84
2022/10/16 06:34:15;;;;;;;2.55;0.80;;;;;;;12.27;100.00;99853.03;5052735;28;20052;-84
2022/10/16 06:36:41;;;;;;;2.60;1.10;;;;;;;12.28;100.00;99860.88;5034283;28;20481;-83
2022/10/16 06:39:07;;;;;;;2.75;1.10;;;;;;;12.31;100.00;99857.41;5034735;28;20048;-84
2022/10/16 06:41:33;;;;;;;;;;;;;;;12.37;100.00;99866.13;5052862;28;20036;-83
2022/10/16 06:43:59;;;;;;;3.42;1.10;;;;;;;12.41;100.00;99868.94;5034416;28;19913;-83
2022/10/16 06:46:26;;;;;;;2.95;1.05;;;;;;;12.44;100.00;99879.19;5034384;28;20496;-83
2022/10/16 06:48:56;;;;;;;3.03;1.20;;;;;;;12.45;100.00;99881.56;5052738;28;20041;-83
2022/10/16 06:51:24;;;;;;;2.72;1.00;;;;;;;12.47;100.00;99881.22;5052533;28;20120;-82
2022/10/16 06:53:52;;;;;;;3.67;1.50;;;;;;;12.51;100.00;99888.34;5034228;28;20043;-83
2022/10/16 06:56:23;;;;;;;3.67;1.23;;;;;;;12.51;100.00;99901.19;5052142;28;20059;-82
2022/10/16 06:58:49;;;;;;;2.53;0.93;;;;;;;12.52;100.00;99897.31;5051954;28;20057;-82
2022/10/16 07:01:18;;;;;;;2.63;0.98;;;;;;;12.56;100.00;99915.38;5052369;28;20025;-82
2022/10/16 07:03:45;;;;;;;5.32;1.30;;;;;;;12.62;100.00;99921.38;5034066;28;20055;-83
2022/10/16 07:06:13;;;;;;;1.85;0.90;;;;;;;12.66;100.00;99922.25;5051753;28;20040;-83
2022/10/16 07:08:42;;;;;;;2.95;1.17;;;;;;;12.65;100.00;99917.94;5034153;28;20032;-83
2022/10/16 07:11:10;;;;;;;2.60;1.30;;;;;;;12.73;100.00;99925.16;5052100;28;20036;-82
2022/10/16 07:13:36;;;;;;;2.38;1.00;;;;;;;12.77;99.81;99931.50;5033994;28;20075;-83
2022/10/16 07:16:10;;;;;;;4.03;1.25;;;;;;;12.79;99.51;99944.81;5051988;28;20370;-82
2022/10/16 07:18:42;;;;;;;3.08;1.45;;;;;;;12.81;99.60;99943.31;5052179;28;20031;-86
2022/10/16 07:21:14;;;;;;;4.50;0.98;;;;;;;12.80;99.42;99944.47;5051912;28;20025;-85
2022/10/16 07:23:41;;;;;;;4.03;1.00;;;;;;;12.79;99.59;99955.75;5034190;28;20029;-85
2022/10/16 07:26:07;;;;;;;2.95;1.10;;;;;;;12.83;99.53;99962.09;5052174;28;20091;-85
2022/10/16 07:28:34;;;;;;;3.15;1.30;;;;;;;12.85;99.50;99957.84;5051847;28;20025;-88
2022/10/16 07:31:02;;;;;;;3.22;1.08;;;;;;;12.86;99.01;99955.91;5034242;28;20055;-87
2022/10/16 07:33:28;;;;;;;1.75;0.85;;;;;;;12.84;99.25;99959.00;5051923;28;20029;-86
2022/10/16 07:35:54;;;;;;;2.65;1.08;;;;;;;12.84;99.33;99959.00;5033900;28;20056;-86
2022/10/16 07:38:20;;;;;;;;;;;;;;;12.89;99.23;99966.91;5052408;28;20028;-86
2022/10/16 07:40:46;;;;;;;2.90;1.05;;;;;;;12.95;98.85;99970.19;5052183;28;19915;-86
2022/10/16 07:43:12;;;;;;;;;;;;;;;13.08;98.43;99973.59;5052688;28;20025;-85
2022/10/16 07:45:50;;;;;;;2.42;0.90;;;;;;;13.11;98.24;99970.19;5051742;28;19971;-87
2022/10/16 07:48:17;;;;;;;3.20;1.20;;;;;;;13.20;97.98;99988.00;5052746;28;20028;-85
2022/10/16 07:50:44;;;;;;;1.75;0.70;;;;;;;13.28;97.60;99982.69;5021132;28;20386;-85
2022/10/16 07:53:10;;;;;;;3.00;1.10;;;;;;;13.38;96.75;99984.88;5055389;28;20071;-86
2022/10/16 07:55:36;;;;;;;3.92;1.20;;;;;;;13.47;96.30;99983.53;5037156;28;20459;-86
2022/10/16 07:58:01;;;;;;;;;;;;;;;13.52;96.19;99994.19;5041142;28;20513;-87
2022/10/16 08:00:26;;;;;;;2.25;0.90;;;;;;;13.60;95.74;99999.81;5054298;28;19955;-81
2022/10/16 08:02:52;;;;;;;2.70;1.17;;;;;;;13.74;94.94;100000.91;5054980;28;20067;-84
2022/10/16 08:05:17;;;;;;;2.93;1.20;;;;;;;13.87;94.64;100004.31;5054986;28;20033;-83
2022/10/16 08:07:42;;;;;;;2.30;0.80;;;;;;;13.92;93.98;100006.75;5054773;28;20770;-82
2022/10/16 08:10:19;;;;;;;2.10;0.80;;;;;;;13.98;93.30;100010.03;5055062;28;20025;-82
2022/10/16 08:12:44;;;;;;;;;;;;;;;14.04;92.67;100009.34;5055820;28;20271;-81
2022/10/16 08:15:10;;;;;;;2.10;0.90;;;;;;;14.10;92.53;100016.13;5055108;28;19912;-82
2022/10/16 08:17:35;;;;;;;3.75;0.85;;;;;;;14.22;91.68;100028.88;5054843;28;20055;-82
2022/10/16 08:20:01;;;;;;;;;;;;;;;14.28;91.42;100032.16;5055009;28;20043;-84
2022/10/16 08:22:27;;;;;;;3.53;0.95;;;;;;;14.34;91.11;100020.53;5055377;28;20238;-85
2022/10/16 08:24:52;;;;;;;3.72;1.08;;;;;;;14.41;90.93;100025.34;5055245;28;20029;-86
2022/10/16 08:27:17;;;;;;;3.20;0.93;;;;;;;14.47;89.62;100026.66;5053874;28;20116;-83
2022/10/16 08:29:43;;;;;;;2.60;0.80;;;;;;;14.57;89.45;100034.28;5054506;28;20715;-83
2022/10/16 08:32:09;;;;;;;2.47;0.77;;;;;;;14.66;88.08;100039.53;5055657;28;20264;-83
2022/10/16 08:34:35;;;;;;;2.10;0.70;;;;;;;14.67;88.01;100041.91;5054779;28;20032;-84
2022/10/16 08:37:01;;;;;;;2.38;0.77;;;;;;;14.65;87.38;100049.72;5054298;28;20037;-84
2022/10/16 08:39:27;;;;;;;2.97;0.77;;;;;;;14.71;86.19;100042.78;5054616;28;20082;-85
2022/10/16 08:42:11;;;;;;;;;;;;;;;14.81;86.54;100035.91;5055326;28;20381;-85
2022/10/16 08:45:08;;;;;;;2.83;0.70;;;;;;;14.89;84.99;100047.78;5054857;28;19962;-85
2022/10/16 08:48:01;;;;;;;3.60;0.80;;;;;;;14.94;84.48;100061.16;5052998;28;20063;-83
2022/10/16 08:50:30;;;;;;;1.83;0.70;;;;;;;14.96;84.22;100080.81;5054716;28;20070;-84
2022/10/16 08:52:57;;;;;;;2.22;0.80;;;;;;;14.92;84.68;100083.47;5054579;28;20059;-87
2022/10/16 08:55:34;;;;;;;2.25;0.60;;;;;;;14.89;84.33;100080.66;5054948;28;20064;-88
2022/10/16 08:58:01;;;;;;;1.55;0.70;;;;;;;14.98;84.15;100083.97;5055059;28;20550;-86
2022/10/16 09:00:29;;;;;;;0.98;0.52;;;;;;;15.03;84.67;100083.66;5036582;28;20044;-87
2022/10/16 09:03:03;;;;;;;1.73;0.70;;;;;;;15.10;84.40;100081.03;5054563;28;20025;-84
2022/10/16 09:06:05;;;;;;;2.35;0.60;;;;;;;15.21;84.15;100092.19;5055504;28;20024;-86
2022/10/16 09:08:43;;;;;;;4.57;1.02;;;;;;;15.31;84.81;100086.91;5036150;28;20029;-86
2022/10/16 09:11:46;;;;;;;2.08;0.70;;;;;;;15.38;83.92;100088.16;5054263;28;20400;-90
2022/10/16 09:14:52;;;;;;;4.63;1.17;;;;;;;15.35;83.43;100097.94;5054169;28;20418;-86
2022/10/16 09:17:52;;;;;;;2.38;0.70;;;;;;;15.36;82.93;100099.50;5054577;28;20102;-86
2022/10/16 09:20:26;;;;;;;1.25;0.63;;;;;;;15.40;82.91;100108.59;5054340;28;20060;-87
2022/10/16 09:23:07;;;;;;;2.33;0.73;;;;;;;15.38;83.04;100108.16;5036523;28;20037;-85
2022/10/16 09:25:35;;;;;;;2.30;0.80;;;;;;;15.42;82.34;100113.69;5035989;28;20098;-87
2022/10/16 09:28:00;;;;;;;2.00;0.50;;;;;;;15.48;82.08;100120.47;5036309;28;20017;-84
2022/10/16 09:30:29;;;;;;;;;;;;;;;15.52;82.56;100115.84;5054507;28;20028;-83
2022/10/16 09:32:57;;;;;;;1.67;0.60;;;;;;;15.55;82.85;100115.88;5036052;28;20284;-85
2022/10/16 09:35:48;;;;;;;1.75;0.63;;;;;;;15.59;82.11;100124.19;5035810;28;20025;-85
2022/10/16 09:38:22;;;;;;;2.25;0.93;;;;;;;15.60;81.25;100120.28;5034767;28;20456;-86
2022/10/16 09:40:48;;;;;;;1.42;0.52;;;;;;;15.52;80.92;100129.56;5054089;28;20034;-85
2022/10/16 09:43:20;;;;;;;;;;;;;;;15.47;81.35;100116.16;5052946;28;20017;-85
2022/10/16 09:45:58;;;;;;;1.70;0.60;;;;;;;15.48;81.53;100120.47;5053867;28;19908;-85
2022/10/16 09:48:27;;;;;;;1.33;0.60;;;;;;;15.58;81.42;100108.88;5053917;28;20075;-86
2022/10/16 09:50:57;;;;;;;2.00;0.70;;;;;;;15.67;80.79;100108.66;5053249;28;20021;-84
2022/10/16 09:53:23;;;;;;;4.03;0.70;;;;;;;15.65;80.66;100117.25;5053146;28;20023;-85
2022/10/16 09:55:53;;;;;;;;;;;;;;;15.78;80.24;100124.09;5053449;28;20021;-82
2022/10/16 09:58:23;;;;;;;3.17;0.60;;;;;;;15.77;80.14;100122.53;5052988;28;19916;-86
2022/10/16 10:00:52;;;;;;;0.77;0.45;;;;;;;15.76;79.82;100122.91;5053453;28;20053;-84
2022/10/16 10:03:40;;;;;;;1.75;0.60;;;;;;;15.78;80.35;100117.81;5052997;28;20051;-85
2022/10/16 10:06:17;;;;;;;0.98;0.50;;;;;;;15.90;80.05;100129.38;5053850;28;20600;-86
2022/10/16 10:08:59;;;;;;;2.47;0.70;;;;;;;15.92;79.71;100127.06;5053025;28;20041;-85
2022/10/16 10:11:46;;;;;;;2.42;0.50;;;;;;;16.02;79.11;100125.66;5018225;28;20036;-85
2022/10/16 10:14:41;;;;;;;2.78;0.60;;;;;;;16.01;79.13;100131.50;5052698;28;20474;-84
2022/10/16 10:17:06;;;;;;;1.63;0.60;;;;;;;16.05;79.09;100118.63;5043757;28;20060;-82
2022/10/16 10:19:45;;;;;;;;;;;;;;;15.96;79.00;100124.41;5035575;28;20067;-89
2022/10/16 10:22:22;;;;;;;2.92;0.70;;;;;;;16.10;78.82;100137.50;5034902;28;19912;-85
2022/10/16 10:25:07;;;;;;;1.92;0.50;;;;;;;16.20;78.90;100128.63;5052762;28;20017;-85
2022/10/16 10:28:01;;;;;;;1.00;0.50;;;;;;;16.30;78.40;100132.69;5052691;28;20494;-85
2022/10/16 10:30:43;;;;;;;2.72;0.88;;;;;;;16.32;78.16;100133.13;5034851;28;20134;-86
2022/10/16 10:33:19;;;;;;;2.40;0.70;;;;;;;16.32;77.61;100133.13;5052447;28;20020;-86
2022/10/16 10:35:50;;;;;;;3.50;0.95;;;;;;;16.41;77.46;100131.66;5052519;28;20094;-87
2022/10/16 10:38:29;;;;;;;2.00;0.70;;;;;;;16.27;77.42;100134.22;5034586;28;20397;-83
2022/10/16 10:41:33;;;;;;;1.80;0.60;;;;;;;16.25;77.25;100144.78;5052397;28;20044;-87
2022/10/16 10:44:20;;;;;;;1.83;0.60;;;;;;;16.38;76.31;100143.41;4971538;28;20031;-85
2022/10/16 10:46:55;;;;;;;1.98;0.80;;;;;;;16.53;74.99;100139.66;4971779;28;20105;-84
2022/10/16 10:49:39;;;;;;;3.35;0.65;;;;;;;16.58;74.07;100144.03;5007990;28;20037;-85
2022/10/16 10:52:19;;;;;;;1.42;0.68;;;;;;;16.47;74.87;100140.38;5034685;28;20052;-85
2022/10/16 10:55:00;;;;;;;2.58;0.80;;;;;;;16.28;75.24;100146.78;5051985;28;20025;-85
2022/10/16 10:57:29;;;;;;;1.95;0.73;;;;;;;16.18;75.62;100139.22;5052114;28;20037;-84
2022/10/16 11:00:06;;;;;;;1.10;0.45;;;;;;;16.18;76.34;100144.69;5034189;28;20029;-84
2022/10/16 11:02:41;;;;;;;1.70;0.50;;;;;;;16.23;76.45;100147.13;5051908;28;20025;-83
2022/10/16 11:05:15;;;;;;;1.17;0.40;;;;;;;16.32;75.98;100133.91;5051756;28;20036;-84
2022/10/16 11:07:54;;;;;;;1.15;0.68;;;;;;;16.45;75.08;100140.72;5034225;28;20049;-85
2022/10/16 11:10:32;;;;;;;1.52;0.55;;;;;;;16.57;74.40;100133.41;5046857;28;20037;-82
2022/10/16 11:13:10;;;;;;;3.33;0.45;;;;;;;16.63;72.91;100142.91;5051827;28;20024;-86
2022/10/16 11:15:39;;;;;;;2.63;0.50;;;;;;;16.63;72.75;100140.97;5051816;28;20123;-87
2022/10/16 11:18:14;;;;;;;2.22;0.55;;;;;;;16.59;72.83;100142.88;5052046;28;20021;-83
2022/10/16 11:20:50;;;;;;;2.53;0.70;;;;;;;16.72;71.80;100151.69;5051729;28;20449;-82
2022/10/16 11:23:25;;;;;;;1.08;0.43;;;;;;;16.63;71.96;100143.72;5050714;28;20062;-84
2022/10/16 11:25:54;;;;;;;1.33;0.40;;;;;;;16.58;72.97;100143.25;5055943;28;20090;-85
2022/10/16 11:28:27;;;;;;;1.75;0.60;;;;;;;16.71;73.70;100144.63;5055464;28;20036;-84
2022/10/16 11:30:58;;;;;;;1.10;0.57;;;;;;;16.97;72.71;100152.00;5055677;28;20036;-83
2022/10/16 11:33:36;;;;;;;1.17;0.52;;;;;;;17.20;71.95;100157.31;5055575;28;20044;-85
2022/10/16 11:36:30;;;;;;;3.35;1.35;;;;;;;17.28;71.31;100147.94;5055942;28;20087;-84
2022/10/16 11:39:19;;;;;;;1.75;0.57;;;;;;;17.42;70.44;100150.84;5055533;28;20401;-84
2022/10/16 11:41:56;;;;;;;2.08;0.35;;;;;;;17.58;70.29;100151.38;5056184;28;20033;-82
2022/10/16 11:44:43;;;;;;;1.73;0.45;;;;;;;17.58;69.48;100156.88;5038371;28;20075;-83
2022/10/16 11:47:50;;;;;;;1.75;0.75;;;;;;;17.58;69.52;100142.31;5056353;28;20029;-84